Time;durP1;ratioP1;P1;durP2;ratioP2;P2;SDS_P1;SDS_P2;PMS_P1;PMS_P2;Temp;Humidity;BMP_temperature;BMP_pressure;BME280_temperature;BME280_humidity;BME280_pressure;Samples;Min_cycle;Max_cycle;Signal;HPM_P1;HPM_P2
2022/11/05 00:10:24;;;;;;;;;;;;;;;8.28;86.29;97622.00;4920232;29;19977;-58
2022/11/05 00:18:23;;;;;;;;;;;;;;;8.26;86.25;97632.34;4931989;29;20011;-58
2022/11/05 00:20:55;;;;;;;;;;;;;;;8.28;86.16;97632.84;4934518;29;19946;-58
2022/11/05 00:26:10;;;;;;;;;;;;;;;8.27;85.76;97636.66;4935064;29;20439;-58
2022/11/05 00:28:40;;;;;;;;;;;;;;;8.14;86.75;97642.88;4933139;29;19930;-58
2022/11/05 00:31:09;;;;;;;;;;;;;;;8.20;86.67;97649.78;4934930;29;19927;-58
2022/11/05 00:33:38;;;;;;;;;;;;;;;8.25;86.71;97646.16;4932587;29;20307;-57
2022/11/05 00:36:09;;;;;;;;;;;;;;;8.35;86.41;97654.88;4933667;29;21500;-58
2022/11/05 00:38:37;;;;;;;;;;;;;;;8.38;86.13;97653.50;4933861;29;20280;-57
2022/11/05 00:41:05;;;;;;;;;;;;;;;8.32;86.46;97649.28;4928256;29;21123;-58
2022/11/05 00:46:23;;;;;;;;;;;;;;;8.36;86.41;97664.66;4933398;29;20332;-57
2022/11/05 00:51:40;;;;;;;;;;;;;;;8.38;85.98;97664.34;4923787;29;19927;-58
2022/11/05 00:54:08;;;;;;;;;;;;;;;8.35;85.87;97659.50;4934354;29;19926;-58
2022/11/05 00:56:36;;;;;;;;;;;;;;;8.34;86.16;97664.09;4928628;29;19937;-58
2022/11/05 00:59:04;;;;;;;;;;;;;;;8.35;85.96;97665.69;4934687;29;19934;-57
2022/11/05 01:01:32;;;;;;;;;;;;;;;8.36;85.99;97671.94;4919174;29;19927;-57
2022/11/05 01:04:01;;;;;;;;;;;;;;;8.38;85.96;97677.88;4925593;29;20435;-57
2022/11/05 01:06:29;;;;;;;;;;;;;;;8.45;85.21;97677.47;4926925;29;19933;-58
2022/11/05 01:08:59;;;;;;;;;;;;;;;8.46;85.53;97681.75;4929376;29;19927;-57
2022/11/05 01:14:12;;;;;;;;;;;;;;;8.38;85.82;97678.69;4934794;29;19926;-58
2022/11/05 01:17:05;;;;;;;;;;;;;;;8.40;85.29;97687.28;4933739;29;19927;-57
2022/11/05 01:19:57;;;;;;;;;;;;;;;8.42;85.58;97691.63;4933654;29;20021;-58
2022/11/05 01:22:27;;;;;;;;;;;;;;;8.34;86.38;97693.88;4922856;29;19934;-57
2022/11/05 01:24:55;;;;;;;;;;;;;;;8.39;86.22;97691.09;4932659;29;19981;-57
2022/11/05 01:27:24;;;;;;;;;;;;;;;8.32;86.42;97693.38;4933949;29;19926;-57
2022/11/05 01:29:52;;;;;;;;;;;;;;;8.44;86.34;97702.94;4933197;29;19993;-57
2022/11/05 01:32:19;;;;;;;;;;;;;;;8.45;86.49;97701.81;4928563;29;19927;-57
2022/11/05 01:34:50;;;;;;;;;;;;;;;8.49;85.87;97708.25;4962420;28;20380;-58
2022/11/05 01:37:18;;;;;;;;;;;;;;;8.48;85.43;97706.66;4923842;29;20308;-57
2022/11/05 01:39:53;;;;;;;;;;;;;;;8.51;86.01;97700.59;4932031;29;19930;-57
2022/11/05 01:42:22;;;;;;;;;;;;;;;8.47;85.67;97705.84;4935918;28;19930;-57
2022/11/05 01:44:58;;;;;;;;;;;;;;;8.46;85.58;97708.84;4932553;29;20393;-58
2022/11/05 01:47:28;;;;;;;;;;;;;;;8.47;85.58;97710.44;4940102;29;20576;-57
2022/11/05 01:49:57;;;;;;;;;;;;;;;8.47;85.80;97711.25;4937016;29;19927;-58
2022/11/05 01:52:27;;;;;;;;;;;;;;;8.43;85.72;97720.28;4932665;29;19982;-58
2022/11/05 01:54:58;;;;;;;;;;;;;;;8.45;85.45;97718.88;4936493;29;19927;-58
2022/11/05 01:57:26;;;;;;;;;;;;;;;8.46;85.62;97719.66;4934621;29;19970;-57
2022/11/05 01:59:54;;;;;;;;;;;;;;;8.51;85.26;97720.38;4937489;29;19927;-58
2022/11/05 02:02:54;;;;;;;;;;;;;;;8.49;84.58;97722.56;4941243;23;20010;-74
2022/11/05 02:05:24;;;;;;;;;;;;;;;8.43;84.37;97726.50;4932659;29;20007;-75
2022/11/05 02:07:52;;;;;;;;;;;;;;;8.42;83.49;97724.09;4959938;23;19927;-58
2022/11/05 02:10:24;;;;;;;;;;;;;;;8.40;83.17;97727.88;4917459;29;19943;-57
2022/11/05 02:12:52;;;;;;;;;;;;;;;8.34;83.72;97723.66;4931406;29;19933;-57
2022/11/05 02:15:25;;;;;;;;;;;;;;;8.39;83.55;97733.59;4918078;29;19931;-58
2022/11/05 02:17:55;;;;;;;;;;;;;;;8.37;83.45;97735.81;4932584;29;19927;-58
2022/11/05 02:20:26;;;;;;;;;;;;;;;8.40;84.18;97732.50;4917996;29;19939;-57
2022/11/05 02:23:12;;;;;;;;;;;;;;;8.46;83.44;97735.91;4918156;29;19934;-57
2022/11/05 02:25:50;;;;;;;;;;;;;;;8.53;83.63;97736.31;4914910;29;19931;-57
2022/11/05 02:28:24;;;;;;;;;;;;;;;8.32;84.33;97742.09;4915186;29;19938;-57
2022/11/05 02:30:54;;;;;;;;;;;;;;;8.31;84.89;97732.38;4929402;29;19933;-59
2022/11/05 02:33:30;;;;;;;;;;;;;;;8.36;84.71;97740.44;4917542;29;19943;-58
2022/11/05 02:36:05;;;;;;;;;;;;;;;8.36;85.16;97737.75;4917965;29;19934;-57
2022/11/05 02:38:37;;;;;;;;;;;;;;;8.32;85.74;97747.53;4917198;29;19934;-58
2022/11/05 02:41:06;;;;;;;;;;;;;;;8.32;85.47;97746.72;4912761;29;20403;-58
2022/11/05 02:43:37;;;;;;;;;;;;;;;8.30;85.55;97749.72;4908695;29;20035;-58
2022/11/05 02:46:08;;;;;;;;;;;;;;;8.37;85.53;97752.06;4913976;29;19934;-57
2022/11/05 02:48:40;;;;;;;;;;;;;;;8.34;85.64;97753.44;4917363;29;19931;-58
2022/11/05 02:51:11;;;;;;;;;;;;;;;8.31;86.18;97756.75;4917703;29;20044;-58
2022/11/05 02:54:05;;;;;;;;;;;;;;;8.30;86.13;97765.94;4917028;29;19927;-57
2022/11/05 02:56:34;;;;;;;;;;;;;;;8.24;86.65;97758.22;4916919;29;19931;-57
2022/11/05 02:59:02;;;;;;;;;;;;;;;8.35;86.31;97762.34;4917628;29;19966;-58
2022/11/05 03:01:32;;;;;;;;;;;;;;;8.39;86.08;97753.34;4915322;29;19927;-57
2022/11/05 03:04:00;;;;;;;;;;;;;;;8.35;85.89;97763.16;4931065;29;20323;-58
2022/11/05 03:06:42;;;;;;;;;;;;;;;8.36;85.75;97761.28;4916840;29;20345;-58
2022/11/05 03:09:28;;;;;;;;;;;;;;;8.34;85.70;97753.44;4916535;29;20017;-58
2022/11/05 03:12:02;;;;;;;;;;;;;;;8.38;84.99;97754.47;4914561;29;19939;-58
2022/11/05 03:14:33;;;;;;;;;;;;;;;8.34;84.45;97756.13;4915053;29;20057;-58
2022/11/05 03:17:04;;;;;;;;;;;;;;;8.35;84.31;97756.94;4907269;29;19928;-58
2022/11/05 03:19:34;;;;;;;;;;;;;;;8.35;84.27;97759.63;4908982;29;19931;-58
2022/11/05 03:22:07;;;;;;;;;;;;;;;8.38;84.36;97761.78;4909665;29;19942;-60
2022/11/05 03:24:36;;;;;;;;;;;;;;;8.43;84.40;97764.41;4916753;29;19928;-58
2022/11/05 03:27:06;;;;;;;;;;;;;;;8.41;83.97;97761.16;4911590;29;19927;-58
2022/11/05 03:29:37;;;;;;;;;;;;;;;8.37;83.52;97763.69;4916211;29;19927;-57
2022/11/05 03:32:07;;;;;;;;;;;;;;;8.38;83.36;97757.19;4917350;29;19933;-57
2022/11/05 03:34:35;;;;;;;;;;;;;;;8.38;83.84;97759.88;4916651;29;19931;-58
2022/11/05 03:37:04;;;;;;;;;;;;;;;8.42;83.98;97767.41;4917927;29;19933;-58
2022/11/05 03:39:32;;;;;;;;;;;;;;;8.47;84.06;97770.00;4918678;29;19927;-58
2022/11/05 03:42:00;;;;;;;;;;;;;;;8.48;83.66;97768.91;4916138;29;20028;-58
2022/11/05 03:44:30;;;;;;;;;;;;;;;8.44;83.21;97776.03;4913676;29;20372;-57
2022/11/05 03:46:59;;;;;;;;;;;;;;;8.40;83.08;97782.03;4917263;29;19931;-58
2022/11/05 03:49:32;;;;;;;;;;;;;;;8.36;83.43;97774.81;4914115;29;19927;-57
2022/11/05 03:52:02;;;;;;;;;;;;;;;8.36;83.71;97774.81;4928606;29;19934;-58
2022/11/05 03:54:29;;;;;;;;;;;;;;;8.34;83.84;97780.50;4914660;29;19927;-58
2022/11/05 03:56:59;;;;;;;;;;;;;;;8.46;83.53;97779.22;4906827;29;20585;-57
2022/11/05 03:59:28;;;;;;;;;;;;;;;8.38;83.16;97776.13;4915598;29;20293;-57
2022/11/05 04:01:56;;;;;;;;;;;;;;;8.39;82.98;97776.91;4916796;29;20432;-58
2022/11/05 04:04:48;;;;;;;;;;;;;;;8.35;82.86;97773.16;4916463;29;19927;-58
2022/11/05 04:18:19;;;;;;;;;;;;;;;8.22;84.25;97780.19;4911049;29;20321;-57
2022/11/05 04:24:08;;;;;;;;;;;;;;;8.27;84.09;97785.50;4919552;29;19935;-57
2022/11/05 04:27:00;;;;;;;;;;;;;;;8.19;84.55;97790.78;4912482;29;20273;-58
2022/11/05 04:32:14;;;;;;;;;;;;;;;8.12;85.26;97802.03;4914743;29;19934;-58
2022/11/05 04:34:42;;;;;;;;;;;;;;;8.09;85.30;97797.19;4929756;29;19931;-58
2022/11/05 04:37:10;;;;;;;;;;;;;;;8.09;85.24;97811.53;4913260;29;19931;-57
2022/11/05 04:39:39;;;;;;;;;;;;;;;8.05;85.52;97809.72;4925755;29;19951;-57
2022/11/05 04:42:31;;;;;;;;;;;;;;;8.07;85.22;97811.03;4912863;29;19987;-57
2022/11/05 04:44:59;;;;;;;;;;;;;;;8.09;85.52;97816.13;4915320;29;19931;-58
2022/11/05 04:47:28;;;;;;;;;;;;;;;8.06;86.20;97808.63;4913221;29;19953;-58
2022/11/05 04:49:55;;;;;;;;;;;;;;;8.04;86.00;97817.03;4915689;29;20558;-58
2022/11/05 04:52:23;;;;;;;;;;;;;;;8.08;85.86;97817.25;4913320;29;19931;-57
2022/11/05 04:54:52;;;;;;;;;;;;;;;8.09;85.60;97824.25;4914366;29;20070;-58
2022/11/05 04:57:20;;;;;;;;;;;;;;;8.08;85.95;97830.75;4914636;29;19927;-58
2022/11/05 04:59:49;;;;;;;;;;;;;;;8.06;86.07;97830.28;4915517;29;19927;-58
2022/11/05 05:02:16;;;;;;;;;;;;;;;8.05;86.13;97842.19;4920184;29;19928;-57
2022/11/05 05:05:10;;;;;;;;;;;;;;;8.07;86.11;97845.41;4912969;29;19927;-58
2022/11/05 05:07:37;;;;;;;;;;;;;;;8.16;85.65;97849.03;4914847;29;20018;-58
2022/11/05 05:10:08;;;;;;;;;;;;;;;8.20;85.41;97854.66;4914397;29;19927;-58
2022/11/05 05:12:38;;;;;;;;;;;;;;;8.19;85.44;97856.53;4910399;29;19993;-58
2022/11/05 05:15:06;;;;;;;;;;;;;;;8.19;85.49;97856.53;4913250;29;20396;-57
2022/11/05 05:17:34;;;;;;;;;;;;;;;8.14;85.54;97862.03;4915013;29;19927;-58
2022/11/05 05:22:51;;;;;;;;;;;;;;;8.10;85.56;97871.88;4910186;29;19927;-57
2022/11/05 05:25:21;;;;;;;;;;;;;;;8.12;85.80;97872.38;4909816;29;19931;-57
2022/11/05 05:27:48;;;;;;;;;;;;;;;8.10;85.95;97871.88;4913829;29;19942;-57
2022/11/05 05:30:17;;;;;;;;;;;;;;;8.11;86.19;97881.59;4912760;29;19982;-57
2022/11/05 05:32:45;;;;;;;;;;;;;;;8.23;85.94;97879.22;4911301;29;19927;-58
2022/11/05 05:35:13;;;;;;;;;;;;;;;8.23;85.45;97884.63;4913409;29;20353;-58
2022/11/05 05:37:41;;;;;;;;;;;;;;;8.19;85.54;97889.03;4914832;29;19927;-58
2022/11/05 05:40:09;;;;;;;;;;;;;;;8.18;85.89;97884.72;4913456;29;19927;-58
2022/11/05 05:42:39;;;;;;;;;;;;;;;8.17;86.32;97888.53;4914504;29;19966;-58
2022/11/05 05:45:35;;;;;;;;;;;;;;;8.17;86.17;97896.66;4914713;29;20333;-58
2022/11/05 05:48:03;;;;;;;;;;;;;;;8.18;85.88;97905.56;4906702;29;19927;-58
2022/11/05 05:50:33;;;;;;;;;;;;;;;8.23;85.70;97903.56;4914455;29;20034;-58
2022/11/05 05:53:06;;;;;;;;;;;;;;;8.29;85.17;97913.22;4915027;29;19928;-58
2022/11/05 05:55:34;;;;;;;;;;;;;;;8.33;85.33;97903.41;4909382;29;19935;-58
2022/11/05 05:58:04;;;;;;;;;;;;;;;8.34;84.73;97915.03;4927060;29;19927;-58
2022/11/05 06:00:32;;;;;;;;;;;;;;;8.37;84.88;97917.19;4906544;29;19927;-58
2022/11/05 06:03:00;;;;;;;;;;;;;;;8.38;84.97;97916.88;4912372;29;19958;-58
2022/11/05 06:05:28;;;;;;;;;;;;;;;8.38;85.37;97916.88;4927263;29;19931;-58
2022/11/05 06:07:59;;;;;;;;;;;;;;;8.35;84.75;97920.16;4907704;29;20483;-58
2022/11/05 06:10:26;;;;;;;;;;;;;;;8.38;84.99;97916.88;4917507;29;19929;-58
2022/11/05 06:12:54;;;;;;;;;;;;;;;8.42;85.18;97927.13;4916428;29;19928;-57
2022/11/05 06:15:24;;;;;;;;;;;;;;;8.42;84.53;97935.25;4912717;29;19927;-58
2022/11/05 06:17:52;;;;;;;;;;;;;;;8.38;84.97;97935.03;4913669;29;19933;-58
2022/11/05 06:20:20;;;;;;;;;;;;;;;8.35;85.16;97939.09;4926902;29;19946;-57
2022/11/05 06:22:54;;;;;;;;;;;;;;;8.36;84.97;97943.47;4914512;29;20014;-58
2022/11/05 06:25:22;;;;;;;;;;;;;;;8.33;85.03;97944.00;4911264;29;19949;-58
2022/11/05 06:27:50;;;;;;;;;;;;;;;8.36;85.00;97948.03;4915031;29;20189;-57
2022/11/05 06:30:20;;;;;;;;;;;;;;;8.32;85.45;97957.84;4910926;29;19934;-57
2022/11/05 06:32:50;;;;;;;;;;;;;;;8.35;85.28;97952.63;4914028;29;19991;-57
2022/11/05 06:35:18;;;;;;;;;;;;;;;8.33;85.42;97954.84;4917363;29;19982;-57
2022/11/05 06:37:46;;;;;;;;;;;;;;;8.38;85.60;97952.09;4915098;29;19933;-57
2022/11/05 06:40:14;;;;;;;;;;;;;;;8.29;85.64;97953.00;4913895;29;20661;-57
2022/11/05 06:43:06;;;;;;;;;;;;;;;8.34;85.13;97956.44;4916582;29;19927;-57
2022/11/05 06:45:34;;;;;;;;;;;;;;;8.33;85.06;97962.97;4918325;29;20349;-58
2022/11/05 06:48:06;;;;;;;;;;;;;;;8.28;85.26;97967.66;4917393;29;20258;-64
2022/11/05 06:50:34;;;;;;;;;;;;;;;8.26;85.23;97970.66;4916153;29;20381;-58
2022/11/05 06:53:03;;;;;;;;;;;;;;;8.22;85.58;97974.25;4917856;29;19927;-64
2022/11/05 06:55:31;;;;;;;;;;;;;;;8.28;85.71;97973.06;4918638;29;19927;-57
2022/11/05 06:57:59;;;;;;;;;;;;;;;8.27;85.74;97985.00;4914488;29;19931;-57
2022/11/05 07:00:28;;;;;;;;;;;;;;;8.23;85.91;97979.34;4919340;29;19934;-59
2022/11/05 07:03:03;;;;;;;;;;;;;;;8.24;85.99;97991.78;4918091;29;20365;-57
2022/11/05 07:05:33;;;;;;;;;;;;;;;8.22;86.22;97994.00;4912178;29;19959;-57
2022/11/05 07:08:00;;;;;;;;;;;;;;;8.31;85.88;97999.53;4907832;29;20300;-58
2022/11/05 07:10:29;;;;;;;;;;;;;;;8.29;85.55;97999.03;4918075;29;20308;-58
2022/11/05 07:12:57;;;;;;;;;;;;;;;8.28;85.50;98005.53;4915420;29;19927;-58
2022/11/05 07:15:24;;;;;;;;;;;;;;;8.29;85.57;98001.72;4910936;29;19946;-58
2022/11/05 07:17:57;;;;;;;;;;;;;;;8.28;85.86;98005.53;4913480;29;19934;-60
2022/11/05 07:20:25;;;;;;;;;;;;;;;8.35;85.81;98006.78;4914791;29;19931;-58
2022/11/05 07:23:02;;;;;;;;;;;;;;;8.40;85.88;98014.03;4915819;29;19933;-58
2022/11/05 07:28:22;;;;;;;;;;;;;;;8.49;85.51;98027.72;4911890;29;20507;-58
2022/11/05 07:30:51;;;;;;;;;;;;;;;8.48;84.67;98026.94;4915670;29;19927;-58
2022/11/05 07:33:19;;;;;;;;;;;;;;;8.49;84.81;98022.31;4914695;29;20486;-57
2022/11/05 07:35:46;;;;;;;;;;;;;;;8.53;85.00;98020.63;4917288;29;19946;-58
2022/11/05 07:38:15;;;;;;;;;;;;;;;8.62;84.72;98016.13;4918872;29;19931;-57
2022/11/05 07:43:36;;;;;;;;;;;;;;;8.76;84.77;98033.25;4911158;29;20344;-61
2022/11/05 07:46:05;;;;;;;;;;;;;;;8.84;84.40;98038.00;4918851;29;20379;-57
2022/11/05 07:48:43;;;;;;;;;;;;;;;8.81;84.10;98040.47;4910717;29;19938;-57
2022/11/05 07:51:11;;;;;;;;;;;;;;;8.77;84.20;98050.28;4916579;29;20332;-56
2022/11/05 07:53:40;;;;;;;;;;;;;;;8.77;84.50;98053.00;4915727;29;19935;-57
2022/11/05 07:56:12;;;;;;;;;;;;;;;8.78;84.43;98055.41;4919454;29;19938;-56
2022/11/05 07:58:41;;;;;;;;;;;;;;;8.87;83.77;98050.94;4912100;29;19939;-56
2022/11/05 08:01:09;;;;;;;;;;;;;;;8.90;83.68;98049.56;4911854;29;20273;-57
2022/11/05 08:03:37;;;;;;;;;;;;;;;8.97;83.84;98057.28;4916184;29;19955;-57
2022/11/05 08:06:06;;;;;;;;;;;;;;;9.00;82.96;98054.81;4916597;29;19927;-56
2022/11/05 08:08:34;;;;;;;;;;;;;;;9.03;81.71;98050.69;4929756;29;19931;-57
2022/11/05 08:11:04;;;;;;;;;;;;;;;9.00;81.61;98049.38;4917455;29;19935;-56
2022/11/05 08:13:32;;;;;;;;;;;;;;;9.00;82.14;98045.84;4915877;29;19927;-56
2022/11/05 08:16:01;;;;;;;;;;;;;;;8.99;82.09;98047.75;4914083;29;19942;-56
2022/11/05 08:18:31;;;;;;;;;;;;;;;8.99;81.29;98060.50;4909444;29;19934;-57
2022/11/05 08:21:00;;;;;;;;;;;;;;;9.00;80.46;98060.22;4916743;29;19927;-57
2022/11/05 08:23:28;;;;;;;;;;;;;;;9.01;80.65;98059.13;4915483;29;19927;-57
2022/11/05 08:25:56;;;;;;;;;;;;;;;9.07;79.62;98065.25;4916284;29;19927;-57
2022/11/05 08:28:26;;;;;;;;;;;;;;;9.07;79.86;98073.38;4912023;29;20373;-57
2022/11/05 08:30:55;;;;;;;;;;;;;;;9.07;80.31;98071.47;4917221;29;19931;-57
2022/11/05 08:33:23;;;;;;;;;;;;;;;9.08;80.82;98069.56;4913940;29;19954;-57
2022/11/05 08:35:51;;;;;;;;;;;;;;;9.13;81.81;98067.56;4913044;29;19927;-57
2022/11/05 08:38:19;;;;;;;;;;;;;;;9.11;82.61;98074.41;4912127;29;19934;-56
2022/11/05 08:40:53;;;;;;;;;;;;;;;9.13;82.93;98066.75;4913223;29;19927;-57
2022/11/05 08:43:21;;;;;;;;;;;;;;;9.08;83.23;98078.50;4914947;29;20014;-57
2022/11/05 08:45:51;;;;;;;;;;;;;;;9.18;82.79;98078.31;4917684;29;19971;-57
2022/11/05 08:48:46;;;;;;;;;;;;;;;9.28;82.73;98081.97;4916749;29;19931;-57
2022/11/05 08:51:14;;;;;;;;;;;;;;;9.27;82.90;98083.88;4913034;29;20022;-57
2022/11/05 08:53:42;;;;;;;;;;;;;;;9.37;82.00;98091.78;4909775;29;19931;-57
2022/11/05 08:56:10;;;;;;;;;;;;;;;9.42;80.91;98093.63;4913894;29;19927;-57
2022/11/05 08:58:38;;;;;;;;;;;;;;;9.38;80.78;98088.00;4914193;29;19935;-60
2022/11/05 09:01:07;;;;;;;;;;;;;;;9.34;81.74;98094.31;4914834;29;19937;-57
2022/11/05 09:03:36;;;;;;;;;;;;;;;9.31;81.77;98095.72;4917596;29;19927;-57
2022/11/05 09:06:04;;;;;;;;;;;;;;;9.36;81.63;98103.75;4912814;29;20052;-57
2022/11/05 09:08:32;;;;;;;;;;;;;;;9.26;81.62;98098.50;4912075;29;19950;-57
2022/11/05 09:11:03;;;;;;;;;;;;;;;9.40;81.02;98106.69;4911450;29;19982;-57
2022/11/05 09:13:31;;;;;;;;;;;;;;;9.35;81.46;98107.56;4927193;29;19927;-57
2022/11/05 09:15:59;;;;;;;;;;;;;;;9.29;81.90;98106.06;4928176;29;19928;-57
2022/11/05 09:18:29;;;;;;;;;;;;;;;9.34;81.82;98108.69;4919908;29;19927;-57
2022/11/05 09:20:58;;;;;;;;;;;;;;;9.36;80.75;98111.88;4911951;29;20013;-57
2022/11/05 09:23:26;;;;;;;;;;;;;;;9.45;80.85;98114.72;4923555;29;19927;-57
2022/11/05 09:25:54;;;;;;;;;;;;;;;9.43;80.51;98112.31;4913851;29;19927;-57
2022/11/05 09:28:23;;;;;;;;;;;;;;;9.44;80.44;98108.50;4915357;29;20399;-57
2022/11/05 09:30:52;;;;;;;;;;;;;;;9.46;80.04;98110.91;4929494;29;20001;-57
2022/11/05 09:33:21;;;;;;;;;;;;;;;9.45;79.86;98115.53;4918873;29;19986;-56
2022/11/05 09:35:51;;;;;;;;;;;;;;;9.37;80.13;98113.50;4914957;29;19927;-57
2022/11/05 09:38:19;;;;;;;;;;;;;;;9.32;80.83;98116.31;4912462;29;19927;-57
2022/11/05 09:40:48;;;;;;;;;;;;;;;9.43;80.60;98116.94;4926231;29;19928;-57
2022/11/05 09:43:18;;;;;;;;;;;;;;;9.45;80.00;98125.56;4916871;29;19937;-57
2022/11/05 09:45:45;;;;;;;;;;;;;;;9.52;79.36;98128.69;4915635;29;19941;-57
2022/11/05 09:51:10;;;;;;;;;;;;;;;9.59;79.18;98139.16;4911299;29;19927;-57
2022/11/05 09:53:40;;;;;;;;;;;;;;;9.57;78.80;98131.31;4911426;29;20037;-57
2022/11/05 09:56:12;;;;;;;;;;;;;;;9.71;78.75;98134.06;4910850;29;19934;-57
2022/11/05 09:58:42;;;;;;;;;;;;;;;9.68;78.17;98132.72;4910457;29;19942;-57
2022/11/05 10:01:11;;;;;;;;;;;;;;;9.59;77.86;98134.56;4916243;29;20266;-57
2022/11/05 10:03:42;;;;;;;;;;;;;;;9.67;77.23;98141.19;4914011;29;19934;-58
2022/11/05 10:06:13;;;;;;;;;;;;;;;9.72;76.56;98135.66;4913073;29;19966;-57
2022/11/05 10:08:42;;;;;;;;;;;;;;;9.81;75.88;98143.91;4908839;29;19927;-57
2022/11/05 10:11:14;;;;;;;;;;;;;;;9.87;76.03;98138.09;4916320;29;20026;-57
2022/11/05 10:13:42;;;;;;;;;;;;;;;10.02;75.94;98144.34;4913165;29;19931;-58
2022/11/05 10:16:13;;;;;;;;;;;;;;;10.03;74.98;98140.50;4913252;29;19934;-58
2022/11/05 10:18:42;;;;;;;;;;;;;;;10.15;74.26;98147.03;4911507;29;19986;-58
2022/11/05 10:21:12;;;;;;;;;;;;;;;10.14;73.50;98142.72;4917490;29;20105;-58
2022/11/05 10:23:41;;;;;;;;;;;;;;;10.20;72.96;98146.13;4920863;29;19974;-58
2022/11/05 10:26:10;;;;;;;;;;;;;;;10.06;72.69;98148.03;4915727;29;19934;-58
2022/11/05 10:28:38;;;;;;;;;;;;;;;10.03;73.49;98148.66;4916523;29;19935;-58
2022/11/05 10:31:08;;;;;;;;;;;;;;;10.18;73.52;98153.78;4917123;29;19931;-58
2022/11/05 10:33:46;;;;;;;;;;;;;;;10.17;73.00;98152.97;4917215;29;19931;-58
2022/11/05 10:36:19;;;;;;;;;;;;;;;10.15;73.38;98157.88;4911302;29;19927;-57
2022/11/05 10:38:47;;;;;;;;;;;;;;;10.18;73.06;98161.91;4918062;29;19931;-58
2022/11/05 10:41:23;;;;;;;;;;;;;;;10.15;73.76;98162.50;4915723;29;19935;-58
2022/11/05 10:43:52;;;;;;;;;;;;;;;10.17;73.73;98158.41;4916892;29;19970;-58
2022/11/05 10:46:24;;;;;;;;;;;;;;;10.21;74.43;98164.81;4912992;29;19933;-57
2022/11/05 10:49:19;;;;;;;;;;;;;;;10.23;73.62;98169.97;4919157;29;19931;-57
2022/11/05 10:51:52;;;;;;;;;;;;;;;10.21;73.65;98164.00;4916743;29;19982;-58
2022/11/05 10:54:22;;;;;;;;;;;;;;;10.28;74.07;98164.47;4915947;29;19927;-57
2022/11/05 10:56:51;;;;;;;;;;;;;;;10.38;73.32;98163.44;4917059;29;19979;-57
2022/11/05 10:59:20;;;;;;;;;;;;;;;10.34;71.92;98162.44;4936642;29;19927;-58
2022/11/05 11:01:55;;;;;;;;;;;;;;;10.28;72.62;98169.91;4930122;29;19975;-58
2022/11/05 11:07:45;;;;;;;;;;;;;;;10.11;74.58;98172.34;4915140;29;19958;-58
2022/11/05 11:10:18;;;;;;;;;;;;;;;9.97;75.25;98170.47;4920924;29;19931;-58
2022/11/05 11:12:48;;;;;;;;;;;;;;;10.00;75.35;98168.25;4916414;29;19933;-57
2022/11/05 11:15:26;;;;;;;;;;;;;;;10.06;75.40;98172.47;4914637;29;19927;-57
2022/11/05 11:17:54;;;;;;;;;;;;;;;10.15;74.74;98176.09;4912803;29;20091;-57
2022/11/05 11:20:24;;;;;;;;;;;;;;;10.11;74.44;98173.16;4915027;29;19931;-57
2022/11/05 11:23:01;;;;;;;;;;;;;;;10.06;74.31;98167.03;4913475;29;20022;-57
2022/11/05 11:25:30;;;;;;;;;;;;;;;10.21;73.81;98166.72;4914395;29;19927;-57
2022/11/05 11:28:25;;;;;;;;;;;;;;;10.17;73.83;98165.72;4912250;29;20456;-58
2022/11/05 11:30:57;;;;;;;;;;;;;;;10.25;74.23;98173.19;4914362;29;19962;-58
2022/11/05 11:33:26;;;;;;;;;;;;;;;10.32;72.94;98159.22;4929806;29;19927;-58
2022/11/05 11:35:55;;;;;;;;;;;;;;;10.29;72.97;98165.25;4915761;29;19927;-58
2022/11/05 11:38:25;;;;;;;;;;;;;;;10.34;73.00;98167.88;4911906;29;20470;-57
2022/11/05 11:40:59;;;;;;;;;;;;;;;10.43;72.42;98166.03;4915887;29;20332;-57
2022/11/05 11:43:29;;;;;;;;;;;;;;;10.45;72.29;98163.84;4930855;29;19966;-57
2022/11/05 11:45:58;;;;;;;;;;;;;;;10.58;71.90;98173.06;4934352;29;19935;-58
2022/11/05 11:48:31;;;;;;;;;;;;;;;10.58;71.49;98167.63;4915994;29;20058;-58
2022/11/05 11:51:30;;;;;;;;;;;;;;;10.61;71.74;98175.19;4916571;29;19927;-58
2022/11/05 11:54:00;;;;;;;;;;;;;;;10.58;71.38;98167.63;4916189;29;20054;-57
2022/11/05 11:56:29;;;;;;;;;;;;;;;10.58;71.28;98173.06;4914750;29;19931;-58
2022/11/05 11:58:57;;;;;;;;;;;;;;;10.56;70.99;98184.25;4916601;29;19931;-58
2022/11/05 12:01:31;;;;;;;;;;;;;;;10.62;71.15;98179.50;4922586;29;19927;-58
2022/11/05 12:04:00;;;;;;;;;;;;;;;10.76;70.65;98174.84;4916402;29;19928;-58
2022/11/05 12:06:32;;;;;;;;;;;;;;;10.68;71.43;98181.00;4911024;29;19927;-58
2022/11/05 12:09:05;;;;;;;;;;;;;;;10.63;71.82;98181.91;4914890;29;19927;-58
2022/11/05 12:11:35;;;;;;;;;;;;;;;10.49;72.09;98171.09;4913657;29;19931;-58
2022/11/05 12:14:08;;;;;;;;;;;;;;;10.34;72.54;98178.75;4914817;29;19974;-57
2022/11/05 12:16:52;;;;;;;;;;;;;;;10.27;72.67;98175.59;4916201;29;19927;-58
2022/11/05 12:19:24;;;;;;;;;;;;;;;10.27;73.92;98175.59;4913326;29;19931;-57
2022/11/05 12:21:54;;;;;;;;;;;;;;;10.25;74.32;98178.63;4927763;29;19935;-57
2022/11/05 12:24:31;;;;;;;;;;;;;;;10.15;75.72;98176.88;4912591;29;19944;-58
2022/11/05 12:27:02;;;;;;;;;;;;;;;10.16;76.37;98178.50;4915798;29;19927;-58
2022/11/05 12:29:36;;;;;;;;;;;;;;;10.14;76.56;98182.63;4932493;29;19994;-58
2022/11/05 12:32:22;;;;;;;;;;;;;;;9.96;77.43;98178.91;4916339;29;19934;-58
2022/11/05 12:34:52;;;;;;;;;;;;;;;9.94;77.96;98176.47;4914213;29;19954;-58
2022/11/05 12:37:23;;;;;;;;;;;;;;;9.97;77.96;98175.88;4912747;29;19931;-57
2022/11/05 12:40:00;;;;;;;;;;;;;;;10.02;77.80;98182.34;4913418;29;20019;-58
2022/11/05 12:42:33;;;;;;;;;;;;;;;9.95;77.41;98178.06;4912003;29;19927;-57
2022/11/05 12:45:03;;;;;;;;;;;;;;;10.10;77.04;98178.91;4916642;29;20296;-58
2022/11/05 12:47:34;;;;;;;;;;;;;;;10.04;76.90;98178.19;4911929;29;20321;-58
2022/11/05 12:50:29;;;;;;;;;;;;;;;10.07;76.39;98179.53;4912910;29;19935;-57
2022/11/05 12:53:05;;;;;;;;;;;;;;;10.11;76.07;98188.66;4915586;29;19970;-58
2022/11/05 12:55:37;;;;;;;;;;;;;;;10.13;74.99;98187.25;4915913;29;19927;-57
2022/11/05 12:58:10;;;;;;;;;;;;;;;10.08;74.65;98189.25;4906240;29;20018;-58
2022/11/05 13:00:38;;;;;;;;;;;;;;;10.16;75.04;98193.97;4912623;29;19935;-58
2022/11/05 13:03:11;;;;;;;;;;;;;;;10.16;75.08;98196.69;4929164;29;19927;-58
2022/11/05 13:05:44;;;;;;;;;;;;;;;10.21;75.32;98196.59;4916993;29;19927;-57
2022/11/05 13:08:16;;;;;;;;;;;;;;;10.30;74.98;98191.31;4911983;29;20589;-58
2022/11/05 13:10:48;;;;;;;;;;;;;;;10.28;73.57;98197.06;4909659;29;19953;-58
2022/11/05 13:13:16;;;;;;;;;;;;;;;10.25;74.11;98197.63;4911479;29;19986;-57
2022/11/05 13:15:47;;;;;;;;;;;;;;;10.28;74.06;98205.19;4914207;29;19931;-57
2022/11/05 13:18:17;;;;;;;;;;;;;;;10.35;73.92;98197.44;4916652;29;19931;-57
2022/11/05 13:20:46;;;;;;;;;;;;;;;10.38;73.63;98202.25;4926125;29;19937;-58
2022/11/05 13:23:40;;;;;;;;;;;;;;;10.22;73.90;98203.63;4912176;29;20018;-58
2022/11/05 13:26:11;;;;;;;;;;;;;;;10.24;73.87;98204.19;4919316;29;19974;-58
2022/11/05 13:28:46;;;;;;;;;;;;;;;10.26;73.39;98198.44;4909647;29;20030;-58
2022/11/05 13:31:16;;;;;;;;;;;;;;;10.25;73.41;98207.69;4915005;29;19931;-58
2022/11/05 13:33:44;;;;;;;;;;;;;;;10.25;73.96;98207.69;4914951;29;20460;-58
2022/11/05 13:39:01;;;;;;;;;;;;;;;10.34;73.06;98201.28;4913425;29;19953;-58
2022/11/05 13:41:35;;;;;;;;;;;;;;;10.36;73.06;98207.19;4910801;29;19935;-59
2022/11/05 13:44:12;;;;;;;;;;;;;;;10.46;72.71;98198.03;4902934;29;20300;-58
2022/11/05 13:46:44;;;;;;;;;;;;;;;10.48;72.53;98206.69;4914755;29;20372;-57
2022/11/05 13:49:18;;;;;;;;;;;;;;;10.47;72.16;98210.50;4911830;29;19935;-57
2022/11/05 13:51:48;;;;;;;;;;;;;;;10.53;72.25;98209.28;4928821;29;19937;-58
2022/11/05 13:54:32;;;;;;;;;;;;;;;10.47;72.20;98207.78;4912068;29;20031;-57
2022/11/05 14:00:02;;;;;;;;;;;;;;;10.50;72.59;98209.91;4914505;29;19931;-57
2022/11/05 14:02:55;;;;;;;;;;;;;;;10.46;73.06;98209.69;4913544;29;19957;-57
2022/11/05 14:05:28;;;;;;;;;;;;;;;10.40;72.33;98216.34;4909730;29;19931;-57
2022/11/05 14:07:57;;;;;;;;;;;;;;;10.33;71.05;98210.50;4913160;29;19942;-57
2022/11/05 14:10:29;;;;;;;;;;;;;;;10.36;71.50;98215.34;4913909;29;20407;-58
2022/11/05 14:12:59;;;;;;;;;;;;;;;10.39;71.36;98206.59;4913913;29;19927;-57
2022/11/05 14:15:28;;;;;;;;;;;;;;;10.35;71.99;98212.94;4914198;28;19966;-57
2022/11/05 14:17:58;;;;;;;;;;;;;;;10.47;70.97;98221.38;4914033;29;19927;-58
2022/11/05 14:20:43;;;;;;;;;;;;;;;10.41;71.62;98217.94;4907814;29;19927;-57